ADDS METAR Data INFO
IDs: Format: Raw Decoded Include TAF

Data at: 0249 UTC 21 Oct 2017

KPNS 210153Z 05003KT 10SM FEW046 23/16 A3010 RMK AO2 SLP195 T02280156
KPNS 210053Z 07003KT 10SM CLR 24/15 A3009 RMK AO2 SLP193 T02440150
KPNS 202353Z 00000KT 10SM CLR 24/18 A3009 RMK AO2 SLP191 T02440183 10294 20244 55000
KPNS 202253Z 00000KT 10SM CLR 26/18 A3008 RMK AO2 SLP189 T02610183
KPNS 202153Z 11005KT 10SM BKN048 27/18 A3008 RMK AO2 SLP186 T02720183
KPNS 202053Z 10007KT 10SM SCT050 28/18 A3009 RMK AO2 SLP190 T02780183 56018
KPNS 201953Z 14010KT 10SM BKN047 28/18 A3010 RMK AO2 SLP193 T02830178
KPNS 201853Z 13007KT 10SM CLR 28/14 A3011 RMK AO2 SLP197 T02830144
KPNS 201753Z 10010KT 10SM CLR 28/12 A3014 RMK AO2 SLP208 T02830122 10289 20189 58022
KPNS 201653Z 09006KT 10SM CLR 28/15 A3017 RMK AO2 SLP217 T02780150
KPNS 201553Z VRB05KT 10SM CLR 26/16 A3019 RMK AO2 SLP225 T02560161
KPNS 201453Z 11006KT 10SM CLR 23/16 A3021 RMK AO2 SLP231 T02330156 51012
KPNS 201353Z 08003KT 7SM CLR 22/15 A3020 RMK AO2 SLP229 T02170150
KPNS 201253Z 05005KT 10SM CLR 19/14 A3019 RMK AO2 SLP224 T01940144
KPNS 201153Z 05005KT 10SM CLR 19/14 A3017 RMK AO2 SLP219 T01890144 10211 20189 53006
KPNS 201053Z 05007KT 10SM CLR 19/14 A3016 RMK AO2 SLP216 T01890139
KPNS 200953Z AUTO 06006KT 10SM CLR 19/14 A3016 RMK AO2 SLP212 T01940144
KPNS 200853Z AUTO 05005KT 10SM CLR 19/14 A3015 RMK AO2 SLP211 T01940144 58004
KPNS 200753Z AUTO 05005KT 10SM CLR 20/15 A3016 RMK AO2 SLP213 T02000150
KPNS 200653Z AUTO 07003KT 10SM CLR 21/15 A3017 RMK AO2 SLP217 T02060150
KPNS 200553Z AUTO 06004KT 10SM CLR 21/16 A3016 RMK AO2 SLP215 T02060156 10239 20206 402890172 58005
KPNS 200453Z AUTO 04005KT 10SM CLR 22/15 A3017 RMK AO2 SLP218 T02170150
KPNS 200353Z AUTO 03004KT 10SM CLR 22/15 A3018 RMK AO2 SLP219 T02170150
KPNS 200253Z 02005KT 10SM FEW050 22/16 A3018 RMK AO2 SLP222 T02170156 51012
KPNS 200153Z 01003KT 10SM CLR 22/16 A3017 RMK AO2 SLP218 T02220156
KPNS 200053Z 01004KT 10SM CLR 23/15 A3016 RMK AO2 SLP215 T02280150
KPNS 192353Z 03003KT 10SM CLR 24/15 A3014 RMK AO2 SLP209 T02390150 10289 20239 53004
KPNS 192253Z 03003KT 10SM CLR 26/14 A3013 RMK AO2 SLP205 T02610144
KPNS 192153Z 04006KT 10SM CLR 28/14 A3013 RMK AO2 SLP203 T02780139
KPNS 192053Z VRB05KT 10SM CLR 28/14 A3013 RMK AO2 SLP205 T02830139 56019
KPNS 191953Z 04005KT 10SM CLR 28/15 A3014 RMK AO2 SLP208 T02830150
KPNS 191853Z COR 04007KT 10SM CLR 28/16 A3016 RMK AO2 SLP215 T02780156
KPNS 191753Z 06006KT 10SM CLR 27/16 A3019 RMK AO2 SLP224 T02720156 10272 20172 58013
KPNS 191653Z VRB04KT 10SM SCT050 26/16 A3022 RMK AO2 SLP236 T02560156
KPNS 191553Z 04006KT 10SM CLR 24/16 A3023 RMK AO2 SLP240 T02440156
KPNS 191453Z 06007KT 10SM CLR 22/14 A3023 RMK AO2 SLP239 T02170139 51017